sensor_id;sensor_type;location;lat;lon;timestamp;P1;P2;P0
66336;PMS1003;53139;45.576;5.304;2022-09-12T00:00:39;0.00;0.00;0.00
66336;PMS1003;53139;45.576;5.304;2022-09-12T00:03:42;0.20;0.00;0.00
66336;PMS1003;53139;45.576;5.304;2022-09-12T00:06:44;0.00;0.00;0.00
66336;PMS1003;53139;45.576;5.304;2022-09-12T00:09:47;1.00;1.00;0.60
66336;PMS1003;53139;45.576;5.304;2022-09-12T00:12:49;0.00;0.00;0.00
66336;PMS1003;53139;45.576;5.304;2022-09-12T00:15:52;2.00;0.60;0.40
66336;PMS1003;53139;45.576;5.304;2022-09-12T00:18:55;1.00;1.00;1.00
66336;PMS1003;53139;45.576;5.304;2022-09-12T00:21:57;0.40;0.40;0.40
66336;PMS1003;53139;45.576;5.304;2022-09-12T00:25:00;0.00;0.00;0.00
66336;PMS1003;53139;45.576;5.304;2022-09-12T00:28:02;0.00;0.00;0.00
66336;PMS1003;53139;45.576;5.304;2022-09-12T00:31:06;2.00;1.00;1.00
66336;PMS1003;53139;45.576;5.304;2022-09-12T00:34:10;2.00;0.80;0.80
66336;PMS1003;53139;45.576;5.304;2022-09-12T00:37:13;1.00;0.00;0.00
66336;PMS1003;53139;45.576;5.304;2022-09-12T00:40:16;0.80;0.60;0.00
66336;PMS1003;53139;45.576;5.304;2022-09-12T00:43:41;1.20;1.00;0.00
66336;PMS1003;53139;45.576;5.304;2022-09-12T00:46:53;1.00;0.40;0.00
66336;PMS1003;53139;45.576;5.304;2022-09-12T00:50:05;1.00;1.00;1.00
66336;PMS1003;53139;45.576;5.304;2022-09-12T00:53:12;0.80;0.80;0.80
66336;PMS1003;53139;45.576;5.304;2022-09-12T00:56:15;0.00;0.00;0.00
66336;PMS1003;53139;45.576;5.304;2022-09-12T00:59:21;1.80;0.80;0.00
66336;PMS1003;53139;45.576;5.304;2022-09-12T01:02:28;0.00;0.00;0.00
66336;PMS1003;53139;45.576;5.304;2022-09-12T01:05:33;0.60;0.60;0.60
66336;PMS1003;53139;45.576;5.304;2022-09-12T01:08:37;0.80;0.80;0.40
66336;PMS1003;53139;45.576;5.304;2022-09-12T01:11:42;1.00;1.00;1.00
66336;PMS1003;53139;45.576;5.304;2022-09-12T01:14:48;2.00;1.00;1.00
66336;PMS1003;53139;45.576;5.304;2022-09-12T01:28:16;2.20;1.60;1.20
66336;PMS1003;53139;45.576;5.304;2022-09-12T01:31:31;1.00;0.00;0.00
66336;PMS1003;53139;45.576;5.304;2022-09-12T01:34:53;2.00;0.00;0.00
66336;PMS1003;53139;45.576;5.304;2022-09-12T01:38:11;2.00;0.60;0.40
66336;PMS1003;53139;45.576;5.304;2022-09-12T01:48:25;1.00;1.00;1.00
66336;PMS1003;53139;45.576;5.304;2022-09-12T01:54:46;3.00;1.80;1.80
66336;PMS1003;53139;45.576;5.304;2022-09-12T01:57:59;1.00;1.00;1.00
66336;PMS1003;53139;45.576;5.304;2022-09-12T02:01:24;1.00;1.00;1.00
66336;PMS1003;53139;45.576;5.304;2022-09-12T02:04:32;1.80;0.60;0.60
66336;PMS1003;53139;45.576;5.304;2022-09-12T02:07:54;2.20;2.00;1.20
66336;PMS1003;53139;45.576;5.304;2022-09-12T02:11:04;1.00;1.00;0.60
66336;PMS1003;53139;45.576;5.304;2022-09-12T02:14:11;2.60;1.00;0.60
66336;PMS1003;53139;45.576;5.304;2022-09-12T02:17:23;0.20;0.20;0.20
66336;PMS1003;53139;45.576;5.304;2022-09-12T02:20:33;1.00;1.00;1.00
66336;PMS1003;53139;45.576;5.304;2022-09-12T02:23:40;1.80;0.20;0.00
66336;PMS1003;53139;45.576;5.304;2022-09-12T02:26:48;2.00;1.00;1.00
66336;PMS1003;53139;45.576;5.304;2022-09-12T02:29:55;0.20;0.20;0.00
66336;PMS1003;53139;45.576;5.304;2022-09-12T02:36:36;1.00;0.80;0.00
66336;PMS1003;53139;45.576;5.304;2022-09-12T02:39:56;1.00;1.00;1.00
66336;PMS1003;53139;45.576;5.304;2022-09-12T02:43:00;1.20;1.00;0.20
66336;PMS1003;53139;45.576;5.304;2022-09-12T02:46:07;1.40;1.00;1.00
66336;PMS1003;53139;45.576;5.304;2022-09-12T02:49:15;0.20;0.00;0.00
66336;PMS1003;53139;45.576;5.304;2022-09-12T02:52:18;0.00;0.00;0.00
66336;PMS1003;53139;45.576;5.304;2022-09-12T02:55:21;0.60;0.00;0.00
66336;PMS1003;53139;45.576;5.304;2022-09-12T02:58:26;0.80;0.80;0.00
66336;PMS1003;53139;45.576;5.304;2022-09-12T03:02:19;1.40;0.20;0.00
66336;PMS1003;53139;45.576;5.304;2022-09-12T03:05:08;0.00;0.00;0.00
66336;PMS1003;53139;45.576;5.304;2022-09-12T03:15:11;0.00;0.00;0.00
66336;PMS1003;53139;45.576;5.304;2022-09-12T03:22:12;1.00;0.60;0.00
66336;PMS1003;53139;45.576;5.304;2022-09-12T03:25:22;0.00;0.00;0.00
66336;PMS1003;53139;45.576;5.304;2022-09-12T03:28:30;0.60;0.00;0.00
66336;PMS1003;53139;45.576;5.304;2022-09-12T03:31:35;0.60;0.60;0.20
66336;PMS1003;53139;45.576;5.304;2022-09-12T03:34:38;2.80;1.00;0.20
66336;PMS1003;53139;45.576;5.304;2022-09-12T03:37:40;2.00;0.80;0.80
66336;PMS1003;53139;45.576;5.304;2022-09-12T03:40:43;1.00;1.00;0.40
66336;PMS1003;53139;45.576;5.304;2022-09-12T03:43:45;0.00;0.00;0.00
66336;PMS1003;53139;45.576;5.304;2022-09-12T03:46:48;0.00;0.00;0.00
66336;PMS1003;53139;45.576;5.304;2022-09-12T03:49:51;1.00;1.00;1.00
66336;PMS1003;53139;45.576;5.304;2022-09-12T03:52:53;1.00;1.00;1.00
66336;PMS1003;53139;45.576;5.304;2022-09-12T03:55:56;0.40;0.40;0.20
66336;PMS1003;53139;45.576;5.304;2022-09-12T03:58:59;1.60;1.00;1.00
66336;PMS1003;53139;45.576;5.304;2022-09-12T04:02:01;2.00;2.00;1.00
66336;PMS1003;53139;45.576;5.304;2022-09-12T04:05:04;4.20;1.00;1.00
66336;PMS1003;53139;45.576;5.304;2022-09-12T04:08:07;0.60;0.60;0.60
66336;PMS1003;53139;45.576;5.304;2022-09-12T04:11:10;1.00;1.00;0.40
66336;PMS1003;53139;45.576;5.304;2022-09-12T04:14:14;0.40;0.00;0.00
66336;PMS1003;53139;45.576;5.304;2022-09-12T04:17:16;1.20;1.00;1.00
66336;PMS1003;53139;45.576;5.304;2022-09-12T04:20:19;2.00;2.00;1.00
66336;PMS1003;53139;45.576;5.304;2022-09-12T04:23:21;1.80;1.00;1.00
66336;PMS1003;53139;45.576;5.304;2022-09-12T04:26:24;2.60;2.60;2.00
66336;PMS1003;53139;45.576;5.304;2022-09-12T04:29:27;0.80;0.80;0.60
66336;PMS1003;53139;45.576;5.304;2022-09-12T04:32:30;4.80;4.80;4.00
66336;PMS1003;53139;45.576;5.304;2022-09-12T04:35:33;2.00;2.00;2.00
66336;PMS1003;53139;45.576;5.304;2022-09-12T04:38:36;3.60;3.00;2.20
66336;PMS1003;53139;45.576;5.304;2022-09-12T04:41:38;10.33;10.00;6.00
66336;PMS1003;53139;45.576;5.304;2022-09-12T04:44:41;1.60;1.60;1.60
66336;PMS1003;53139;45.576;5.304;2022-09-12T04:47:44;1.00;1.00;0.80
66336;PMS1003;53139;45.576;5.304;2022-09-12T04:50:47;1.00;1.00;0.00
66336;PMS1003;53139;45.576;5.304;2022-09-12T04:53:50;2.40;2.00;2.00
66336;PMS1003;53139;45.576;5.304;2022-09-12T04:56:54;1.00;1.00;1.00
66336;PMS1003;53139;45.576;5.304;2022-09-12T04:59:57;3.20;1.80;1.00
66336;PMS1003;53139;45.576;5.304;2022-09-12T05:03:00;2.00;2.00;1.00
66336;PMS1003;53139;45.576;5.304;2022-09-12T05:06:03;1.20;1.00;1.00
66336;PMS1003;53139;45.576;5.304;2022-09-12T05:09:07;3.40;1.40;1.00
66336;PMS1003;53139;45.576;5.304;2022-09-12T05:12:13;2.20;1.40;1.00
66336;PMS1003;53139;45.576;5.304;2022-09-12T05:15:15;2.00;2.00;2.00
66336;PMS1003;53139;45.576;5.304;2022-09-12T05:18:18;1.60;1.60;1.40
66336;PMS1003;53139;45.576;5.304;2022-09-12T05:21:20;1.00;1.00;1.00
66336;PMS1003;53139;45.576;5.304;2022-09-12T05:24:26;4.20;2.00;2.00
66336;PMS1003;53139;45.576;5.304;2022-09-12T05:27:29;2.00;2.00;2.00
66336;PMS1003;53139;45.576;5.304;2022-09-12T05:30:31;4.20;1.80;1.40
66336;PMS1003;53139;45.576;5.304;2022-09-12T05:33:34;1.60;1.60;1.00
66336;PMS1003;53139;45.576;5.304;2022-09-12T05:36:38;4.60;2.20;2.00
66336;PMS1003;53139;45.576;5.304;2022-09-12T05:39:40;2.80;2.00;2.00
66336;PMS1003;53139;45.576;5.304;2022-09-12T05:42:43;2.20;2.20;2.00
66336;PMS1003;53139;45.576;5.304;2022-09-12T05:45:45;4.00;3.00;2.40
66336;PMS1003;53139;45.576;5.304;2022-09-12T05:48:49;2.00;2.00;2.00
66336;PMS1003;53139;45.576;5.304;2022-09-12T05:51:52;2.20;2.20;2.00
66336;PMS1003;53139;45.576;5.304;2022-09-12T05:54:54;1.00;1.00;1.00
66336;PMS1003;53139;45.576;5.304;2022-09-12T05:57:57;2.00;1.00;1.00
66336;PMS1003;53139;45.576;5.304;2022-09-12T06:01:07;3.00;2.00;2.00
66336;PMS1003;53139;45.576;5.304;2022-09-12T06:04:11;5.60;2.00;2.00
66336;PMS1003;53139;45.576;5.304;2022-09-12T06:07:14;2.00;2.00;1.80
66336;PMS1003;53139;45.576;5.304;2022-09-12T06:10:16;4.00;2.00;2.00
66336;PMS1003;53139;45.576;5.304;2022-09-12T06:13:19;2.40;2.20;2.00
66336;PMS1003;53139;45.576;5.304;2022-09-12T06:16:22;2.80;2.00;2.00
66336;PMS1003;53139;45.576;5.304;2022-09-12T06:19:27;2.00;2.00;1.80
66336;PMS1003;53139;45.576;5.304;2022-09-12T06:22:29;1.80;1.80;1.80
66336;PMS1003;53139;45.576;5.304;2022-09-12T06:25:32;1.40;1.40;1.40
66336;PMS1003;53139;45.576;5.304;2022-09-12T06:28:36;2.00;1.60;1.00
66336;PMS1003;53139;45.576;5.304;2022-09-12T06:31:41;1.60;1.60;1.00
66336;PMS1003;53139;45.576;5.304;2022-09-12T06:34:44;2.00;1.60;1.00
66336;PMS1003;53139;45.576;5.304;2022-09-12T06:37:49;3.00;2.00;1.40
66336;PMS1003;53139;45.576;5.304;2022-09-12T06:40:51;2.40;2.00;1.00
66336;PMS1003;53139;45.576;5.304;2022-09-12T06:43:54;1.20;1.20;1.00
66336;PMS1003;53139;45.576;5.304;2022-09-12T06:46:57;1.00;1.00;1.00
66336;PMS1003;53139;45.576;5.304;2022-09-12T06:50:00;1.20;1.20;1.00
66336;PMS1003;53139;45.576;5.304;2022-09-12T06:53:02;4.60;2.00;1.40
66336;PMS1003;53139;45.576;5.304;2022-09-12T06:56:06;3.20;2.00;1.60
66336;PMS1003;53139;45.576;5.304;2022-09-12T06:59:13;2.60;2.00;2.00
66336;PMS1003;53139;45.576;5.304;2022-09-12T07:02:15;1.40;1.40;1.00
66336;PMS1003;53139;45.576;5.304;2022-09-12T07:05:18;0.80;0.00;0.00
66336;PMS1003;53139;45.576;5.304;2022-09-12T07:08:20;1.40;1.40;1.20
66336;PMS1003;53139;45.576;5.304;2022-09-12T07:11:24;1.80;1.80;1.00
66336;PMS1003;53139;45.576;5.304;2022-09-12T07:14:28;1.00;1.00;1.00
66336;PMS1003;53139;45.576;5.304;2022-09-12T07:17:31;3.00;2.20;2.00
66336;PMS1003;53139;45.576;5.304;2022-09-12T07:20:33;1.80;1.80;1.80
66336;PMS1003;53139;45.576;5.304;2022-09-12T07:23:39;1.00;1.00;1.00
66336;PMS1003;53139;45.576;5.304;2022-09-12T07:26:43;2.00;2.00;1.00
66336;PMS1003;53139;45.576;5.304;2022-09-12T07:29:45;2.20;2.00;1.00
66336;PMS1003;53139;45.576;5.304;2022-09-12T07:32:54;2.00;2.00;1.60
66336;PMS1003;53139;45.576;5.304;2022-09-12T07:36:03;3.80;2.00;2.00
66336;PMS1003;53139;45.576;5.304;2022-09-12T07:39:07;3.20;2.00;2.00
66336;PMS1003;53139;45.576;5.304;2022-09-12T07:42:10;2.00;2.00;1.60
66336;PMS1003;53139;45.576;5.304;2022-09-12T07:45:14;2.60;1.60;1.60
66336;PMS1003;53139;45.576;5.304;2022-09-12T07:48:17;2.20;1.20;1.20
66336;PMS1003;53139;45.576;5.304;2022-09-12T07:51:20;0.80;0.80;0.80
66336;PMS1003;53139;45.576;5.304;2022-09-12T07:54:24;2.20;2.00;2.00
66336;PMS1003;53139;45.576;5.304;2022-09-12T07:57:26;0.40;0.00;0.00
66336;PMS1003;53139;45.576;5.304;2022-09-12T08:00:29;1.80;1.80;1.60
66336;PMS1003;53139;45.576;5.304;2022-09-12T08:03:37;2.00;2.00;2.00
66336;PMS1003;53139;45.576;5.304;2022-09-12T08:06:40;1.60;1.60;1.60
66336;PMS1003;53139;45.576;5.304;2022-09-12T08:09:43;0.80;0.80;0.80
66336;PMS1003;53139;45.576;5.304;2022-09-12T08:12:45;2.00;1.00;1.00
66336;PMS1003;53139;45.576;5.304;2022-09-12T08:15:48;3.40;2.00;1.20
66336;PMS1003;53139;45.576;5.304;2022-09-12T08:18:50;1.60;1.60;1.00
66336;PMS1003;53139;45.576;5.304;2022-09-12T08:21:53;0.80;0.80;0.80
66336;PMS1003;53139;45.576;5.304;2022-09-12T08:24:55;2.00;1.40;1.20
66336;PMS1003;53139;45.576;5.304;2022-09-12T08:27:58;0.00;0.00;0.00
66336;PMS1003;53139;45.576;5.304;2022-09-12T08:31:03;1.00;1.00;0.60
66336;PMS1003;53139;45.576;5.304;2022-09-12T08:34:06;2.80;2.00;1.40
66336;PMS1003;53139;45.576;5.304;2022-09-12T08:37:09;0.00;0.00;0.00
66336;PMS1003;53139;45.576;5.304;2022-09-12T08:40:15;1.00;1.00;1.00
66336;PMS1003;53139;45.576;5.304;2022-09-12T08:50:19;0.60;0.60;0.60
66336;PMS1003;53139;45.576;5.304;2022-09-12T08:53:23;0.80;0.80;0.60
66336;PMS1003;53139;45.576;5.304;2022-09-12T08:56:28;1.00;0.60;0.00
66336;PMS1003;53139;45.576;5.304;2022-09-12T08:59:38;1.00;1.00;1.00
66336;PMS1003;53139;45.576;5.304;2022-09-12T09:09:28;1.00;1.00;1.00
66336;PMS1003;53139;45.576;5.304;2022-09-12T09:12:59;2.00;0.20;0.20
66336;PMS1003;53139;45.576;5.304;2022-09-12T09:16:43;1.00;1.00;1.00
66336;PMS1003;53139;45.576;5.304;2022-09-12T09:19:51;2.00;1.00;0.60
66336;PMS1003;53139;45.576;5.304;2022-09-12T09:23:09;0.60;0.60;0.00
66336;PMS1003;53139;45.576;5.304;2022-09-12T09:26:19;1.00;1.00;1.00
66336;PMS1003;53139;45.576;5.304;2022-09-12T09:29:39;2.00;1.00;1.00
66336;PMS1003;53139;45.576;5.304;2022-09-12T09:32:50;1.20;1.00;0.80
66336;PMS1003;53139;45.576;5.304;2022-09-12T09:45:18;1.00;1.00;1.00
66336;PMS1003;53139;45.576;5.304;2022-09-12T09:51:33;1.00;1.00;1.00
66336;PMS1003;53139;45.576;5.304;2022-09-12T09:54:43;1.00;1.00;0.60
66336;PMS1003;53139;45.576;5.304;2022-09-12T09:57:51;1.00;1.00;1.00
66336;PMS1003;53139;45.576;5.304;2022-09-12T10:01:04;1.00;1.00;1.00
66336;PMS1003;53139;45.576;5.304;2022-09-12T10:04:17;1.00;0.40;0.40
66336;PMS1003;53139;45.576;5.304;2022-09-12T10:07:22;2.00;1.00;0.80
66336;PMS1003;53139;45.576;5.304;2022-09-12T10:10:27;0.00;0.00;0.00
66336;PMS1003;53139;45.576;5.304;2022-09-12T10:13:31;0.20;0.00;0.00
66336;PMS1003;53139;45.576;5.304;2022-09-12T10:16:49;1.00;1.00;1.00
66336;PMS1003;53139;45.576;5.304;2022-09-12T10:19:56;2.40;1.00;1.00
66336;PMS1003;53139;45.576;5.304;2022-09-12T10:23:00;1.00;1.00;1.00
66336;PMS1003;53139;45.576;5.304;2022-09-12T10:26:09;2.00;2.00;2.00
66336;PMS1003;53139;45.576;5.304;2022-09-12T10:29:15;1.00;1.00;1.00
66336;PMS1003;53139;45.576;5.304;2022-09-12T10:32:22;0.60;0.60;0.00
66336;PMS1003;53139;45.576;5.304;2022-09-12T10:35:44;1.20;1.00;0.80
66336;PMS1003;53139;45.576;5.304;2022-09-12T10:38:52;0.40;0.20;0.00
66336;PMS1003;53139;45.576;5.304;2022-09-12T10:41:56;0.00;0.00;0.00
66336;PMS1003;53139;45.576;5.304;2022-09-12T10:44:59;0.80;0.80;0.80
66336;PMS1003;53139;45.576;5.304;2022-09-12T10:48:35;1.00;1.00;1.00
66336;PMS1003;53139;45.576;5.304;2022-09-12T10:51:32;2.80;1.00;1.00
66336;PMS1003;53139;45.576;5.304;2022-09-12T10:54:35;2.00;1.00;1.00
66336;PMS1003;53139;45.576;5.304;2022-09-12T11:01:19;0.00;0.00;0.00
66336;PMS1003;53139;45.576;5.304;2022-09-12T11:07:57;0.60;0.00;0.00
66336;PMS1003;53139;45.576;5.304;2022-09-12T11:14:45;1.00;1.00;1.00
66336;PMS1003;53139;45.576;5.304;2022-09-12T11:28:36;3.80;1.00;0.00
66336;PMS1003;53139;45.576;5.304;2022-09-12T11:35:16;0.00;0.00;0.00
66336;PMS1003;53139;45.576;5.304;2022-09-12T11:38:29;0.20;0.20;0.20
66336;PMS1003;53139;45.576;5.304;2022-09-12T11:41:46;1.00;1.00;1.00
66336;PMS1003;53139;45.576;5.304;2022-09-12T11:44:58;0.00;0.00;0.00
66336;PMS1003;53139;45.576;5.304;2022-09-12T11:48:18;0.00;0.00;0.00
66336;PMS1003;53139;45.576;5.304;2022-09-12T11:51:32;1.00;1.00;0.60
66336;PMS1003;53139;45.576;5.304;2022-09-12T11:54:40;2.00;0.20;0.20
66336;PMS1003;53139;45.576;5.304;2022-09-12T11:57:44;2.00;1.00;1.00
66336;PMS1003;53139;45.576;5.304;2022-09-12T12:00:50;0.00;0.00;0.00
66336;PMS1003;53139;45.576;5.304;2022-09-12T12:03:59;0.00;0.00;0.00
66336;PMS1003;53139;45.576;5.304;2022-09-12T12:07:08;3.20;0.00;0.00
66336;PMS1003;53139;45.576;5.304;2022-09-12T12:10:26;0.60;0.60;0.40
66336;PMS1003;53139;45.576;5.304;2022-09-12T12:16:41;0.00;0.00;0.00
66336;PMS1003;53139;45.576;5.304;2022-09-12T12:19:45;0.00;0.00;0.00
66336;PMS1003;53139;45.576;5.304;2022-09-12T12:22:52;0.00;0.00;0.00
66336;PMS1003;53139;45.576;5.304;2022-09-12T12:25:56;0.60;0.60;0.60
66336;PMS1003;53139;45.576;5.304;2022-09-12T12:29:00;0.40;0.40;0.40
66336;PMS1003;53139;45.576;5.304;2022-09-12T12:38:47;1.00;1.00;1.00
66336;PMS1003;53139;45.576;5.304;2022-09-12T12:41:50;0.00;0.00;0.00
66336;PMS1003;53139;45.576;5.304;2022-09-12T12:44:52;0.00;0.00;0.00
66336;PMS1003;53139;45.576;5.304;2022-09-12T12:57:47;0.00;0.00;0.00
66336;PMS1003;53139;45.576;5.304;2022-09-12T13:01:12;0.40;0.40;0.20
66336;PMS1003;53139;45.576;5.304;2022-09-12T13:04:16;2.20;0.00;0.00
66336;PMS1003;53139;45.576;5.304;2022-09-12T13:07:25;0.40;0.40;0.40
66336;PMS1003;53139;45.576;5.304;2022-09-12T13:10:31;0.00;0.00;0.00
66336;PMS1003;53139;45.576;5.304;2022-09-12T13:13:38;1.00;1.00;1.00
66336;PMS1003;53139;45.576;5.304;2022-09-12T13:17:00;0.00;0.00;0.00
66336;PMS1003;53139;45.576;5.304;2022-09-12T13:20:25;0.00;0.00;0.00
66336;PMS1003;53139;45.576;5.304;2022-09-12T13:23:32;1.80;1.00;1.00
66336;PMS1003;53139;45.576;5.304;2022-09-12T13:26:39;0.00;0.00;0.00
66336;PMS1003;53139;45.576;5.304;2022-09-12T13:29:45;0.67;0.67;0.00
66336;PMS1003;53139;45.576;5.304;2022-09-12T13:32:48;0.00;0.00;0.00
66336;PMS1003;53139;45.576;5.304;2022-09-12T13:42:37;0.00;0.00;0.00
66336;PMS1003;53139;45.576;5.304;2022-09-12T13:45:46;0.20;0.00;0.00
66336;PMS1003;53139;45.576;5.304;2022-09-12T13:48:49;0.00;0.00;0.00
66336;PMS1003;53139;45.576;5.304;2022-09-12T13:51:53;0.00;0.00;0.00
66336;PMS1003;53139;45.576;5.304;2022-09-12T13:55:05;0.80;0.00;0.00
66336;PMS1003;53139;45.576;5.304;2022-09-12T13:58:27;0.00;0.00;0.00
66336;PMS1003;53139;45.576;5.304;2022-09-12T14:01:38;1.00;0.00;0.00
66336;PMS1003;53139;45.576;5.304;2022-09-12T14:04:44;0.00;0.00;0.00
66336;PMS1003;53139;45.576;5.304;2022-09-12T14:08:08;0.00;0.00;0.00
66336;PMS1003;53139;45.576;5.304;2022-09-12T14:11:25;0.00;0.00;0.00
66336;PMS1003;53139;45.576;5.304;2022-09-12T14:17:37;0.00;0.00;0.00
66336;PMS1003;53139;45.576;5.304;2022-09-12T14:20:40;0.00;0.00;0.00
66336;PMS1003;53139;45.576;5.304;2022-09-12T14:23:43;0.00;0.00;0.00
66336;PMS1003;53139;45.576;5.304;2022-09-12T14:26:52;0.00;0.00;0.00
66336;PMS1003;53139;45.576;5.304;2022-09-12T14:30:05;0.00;0.00;0.00
66336;PMS1003;53139;45.576;5.304;2022-09-12T14:39:39;1.00;0.20;0.00
66336;PMS1003;53139;45.576;5.304;2022-09-12T14:42:45;0.00;0.00;0.00
66336;PMS1003;53139;45.576;5.304;2022-09-12T14:45:53;0.00;0.00;0.00
66336;PMS1003;53139;45.576;5.304;2022-09-12T14:48:59;0.00;0.00;0.00
66336;PMS1003;53139;45.576;5.304;2022-09-12T14:52:19;0.00;0.00;0.00
66336;PMS1003;53139;45.576;5.304;2022-09-12T14:55:40;0.00;0.00;0.00
66336;PMS1003;53139;45.576;5.304;2022-09-12T14:58:45;1.60;1.00;1.00
66336;PMS1003;53139;45.576;5.304;2022-09-12T15:01:48;1.00;1.00;1.00
66336;PMS1003;53139;45.576;5.304;2022-09-12T15:04:52;0.20;0.20;0.20
66336;PMS1003;53139;45.576;5.304;2022-09-12T15:08:15;0.00;0.00;0.00
66336;PMS1003;53139;45.576;5.304;2022-09-12T15:11:17;0.40;0.40;0.00
66336;PMS1003;53139;45.576;5.304;2022-09-12T15:14:20;0.00;0.00;0.00
66336;PMS1003;53139;45.576;5.304;2022-09-12T15:17:22;0.00;0.00;0.00
66336;PMS1003;53139;45.576;5.304;2022-09-12T15:20:25;1.40;1.00;0.00
66336;PMS1003;53139;45.576;5.304;2022-09-12T15:23:31;0.40;0.40;0.40
66336;PMS1003;53139;45.576;5.304;2022-09-12T15:26:39;1.20;0.00;0.00
66336;PMS1003;53139;45.576;5.304;2022-09-12T15:29:41;0.80;0.00;0.00
66336;PMS1003;53139;45.576;5.304;2022-09-12T15:32:44;0.40;0.40;0.40
66336;PMS1003;53139;45.576;5.304;2022-09-12T15:35:47;0.00;0.00;0.00
66336;PMS1003;53139;45.576;5.304;2022-09-12T15:38:50;1.00;1.00;0.60
66336;PMS1003;53139;45.576;5.304;2022-09-12T15:41:53;0.80;0.80;0.00
66336;PMS1003;53139;45.576;5.304;2022-09-12T15:44:56;0.00;0.00;0.00
66336;PMS1003;53139;45.576;5.304;2022-09-12T15:48:00;0.00;0.00;0.00
66336;PMS1003;53139;45.576;5.304;2022-09-12T15:51:14;0.20;0.20;0.00
66336;PMS1003;53139;45.576;5.304;2022-09-12T15:54:19;0.60;0.60;0.40
66336;PMS1003;53139;45.576;5.304;2022-09-12T15:57:22;3.00;1.00;1.00
66336;PMS1003;53139;45.576;5.304;2022-09-12T16:00:24;1.00;1.00;0.40
66336;PMS1003;53139;45.576;5.304;2022-09-12T16:03:28;0.00;0.00;0.00
66336;PMS1003;53139;45.576;5.304;2022-09-12T16:06:31;1.80;1.00;0.20
66336;PMS1003;53139;45.576;5.304;2022-09-12T16:09:33;8.25;7.50;5.25
66336;PMS1003;53139;45.576;5.304;2022-09-12T16:12:36;1.00;1.00;0.40
66336;PMS1003;53139;45.576;5.304;2022-09-12T16:15:38;0.00;0.00;0.00
66336;PMS1003;53139;45.576;5.304;2022-09-12T16:18:41;0.00;0.00;0.00
66336;PMS1003;53139;45.576;5.304;2022-09-12T16:21:44;1.00;1.00;1.00
66336;PMS1003;53139;45.576;5.304;2022-09-12T16:24:47;1.00;1.00;1.00
66336;PMS1003;53139;45.576;5.304;2022-09-12T16:27:49;1.00;1.00;1.00
66336;PMS1003;53139;45.576;5.304;2022-09-12T16:34:01;0.00;0.00;0.00
66336;PMS1003;53139;45.576;5.304;2022-09-12T16:37:03;1.00;1.00;1.00
66336;PMS1003;53139;45.576;5.304;2022-09-12T16:40:06;1.20;1.20;1.20
66336;PMS1003;53139;45.576;5.304;2022-09-12T16:43:10;2.00;2.00;1.80
66336;PMS1003;53139;45.576;5.304;2022-09-12T16:46:16;1.00;1.00;0.00
66336;PMS1003;53139;45.576;5.304;2022-09-12T16:49:23;1.20;1.00;1.00
66336;PMS1003;53139;45.576;5.304;2022-09-12T16:52:26;2.60;1.20;1.00
66336;PMS1003;53139;45.576;5.304;2022-09-12T16:55:29;1.00;1.00;1.00
66336;PMS1003;53139;45.576;5.304;2022-09-12T16:58:34;2.00;1.50;1.00
66336;PMS1003;53139;45.576;5.304;2022-09-12T17:01:38;2.00;2.00;1.20
66336;PMS1003;53139;45.576;5.304;2022-09-12T17:04:40;2.20;1.60;1.40
66336;PMS1003;53139;45.576;5.304;2022-09-12T17:07:43;2.00;2.00;2.00
66336;PMS1003;53139;45.576;5.304;2022-09-12T17:10:45;1.00;1.00;1.00
66336;PMS1003;53139;45.576;5.304;2022-09-12T17:13:52;1.80;1.80;1.00
66336;PMS1003;53139;45.576;5.304;2022-09-12T17:16:56;2.40;2.40;1.80
66336;PMS1003;53139;45.576;5.304;2022-09-12T17:19:58;2.00;2.00;2.00
66336;PMS1003;53139;45.576;5.304;2022-09-12T17:23:01;1.20;1.00;1.00
66336;PMS1003;53139;45.576;5.304;2022-09-12T17:26:03;2.00;2.00;2.00
66336;PMS1003;53139;45.576;5.304;2022-09-12T17:29:07;2.60;2.00;1.80
66336;PMS1003;53139;45.576;5.304;2022-09-12T17:32:09;3.60;2.00;2.00
66336;PMS1003;53139;45.576;5.304;2022-09-12T17:35:12;2.40;2.00;2.00
66336;PMS1003;53139;45.576;5.304;2022-09-12T17:38:14;3.00;3.00;2.00
66336;PMS1003;53139;45.576;5.304;2022-09-12T17:41:18;3.80;3.00;2.00
66336;PMS1003;53139;45.576;5.304;2022-09-12T17:44:22;2.40;2.40;2.00
66336;PMS1003;53139;45.576;5.304;2022-09-12T17:47:25;2.00;2.00;2.00
66336;PMS1003;53139;45.576;5.304;2022-09-12T17:50:27;6.20;4.80;4.40
66336;PMS1003;53139;45.576;5.304;2022-09-12T17:53:30;3.00;3.00;3.00
66336;PMS1003;53139;45.576;5.304;2022-09-12T17:56:33;3.80;3.80;3.00
66336;PMS1003;53139;45.576;5.304;2022-09-12T17:59:36;4.00;4.00;3.20
66336;PMS1003;53139;45.576;5.304;2022-09-12T18:02:39;3.40;3.40;3.00
66336;PMS1003;53139;45.576;5.304;2022-09-12T18:05:48;4.00;4.00;3.00
66336;PMS1003;53139;45.576;5.304;2022-09-12T18:08:54;3.00;3.00;2.60
66336;PMS1003;53139;45.576;5.304;2022-09-12T18:11:56;5.80;4.00;3.00
66336;PMS1003;53139;45.576;5.304;2022-09-12T18:14:59;3.80;2.00;2.00
66336;PMS1003;53139;45.576;5.304;2022-09-12T18:18:02;4.40;3.60;2.60
66336;PMS1003;53139;45.576;5.304;2022-09-12T18:21:05;4.00;2.20;2.00
66336;PMS1003;53139;45.576;5.304;2022-09-12T18:24:09;4.20;3.80;3.00
66336;PMS1003;53139;45.576;5.304;2022-09-12T18:27:12;4.00;3.40;3.20
66336;PMS1003;53139;45.576;5.304;2022-09-12T18:30:15;3.80;3.00;2.00
66336;PMS1003;53139;45.576;5.304;2022-09-12T18:33:20;5.00;4.00;3.60
66336;PMS1003;53139;45.576;5.304;2022-09-12T18:36:23;3.40;3.40;2.80
66336;PMS1003;53139;45.576;5.304;2022-09-12T18:39:25;3.00;3.00;2.60
66336;PMS1003;53139;45.576;5.304;2022-09-12T18:42:28;2.20;2.20;2.00
66336;PMS1003;53139;45.576;5.304;2022-09-12T18:45:30;3.60;3.20;3.00
66336;PMS1003;53139;45.576;5.304;2022-09-12T18:48:33;2.80;2.00;2.00
66336;PMS1003;53139;45.576;5.304;2022-09-12T18:51:36;3.00;3.00;3.00
66336;PMS1003;53139;45.576;5.304;2022-09-12T18:54:41;3.40;2.60;2.40
66336;PMS1003;53139;45.576;5.304;2022-09-12T18:57:43;4.60;3.80;3.00
66336;PMS1003;53139;45.576;5.304;2022-09-12T19:00:46;4.00;4.00;3.00
66336;PMS1003;53139;45.576;5.304;2022-09-12T19:03:50;5.60;4.20;3.40
66336;PMS1003;53139;45.576;5.304;2022-09-12T19:06:54;5.00;5.00;4.00
66336;PMS1003;53139;45.576;5.304;2022-09-12T19:09:56;2.20;2.20;2.00
66336;PMS1003;53139;45.576;5.304;2022-09-12T19:12:59;3.80;3.00;3.00
66336;PMS1003;53139;45.576;5.304;2022-09-12T19:16:05;3.60;3.20;3.00
66336;PMS1003;53139;45.576;5.304;2022-09-12T19:19:12;4.40;4.00;3.00
66336;PMS1003;53139;45.576;5.304;2022-09-12T19:22:15;3.20;3.00;2.80
66336;PMS1003;53139;45.576;5.304;2022-09-12T19:25:17;4.40;3.20;3.00
66336;PMS1003;53139;45.576;5.304;2022-09-12T19:28:20;5.00;4.00;3.20
66336;PMS1003;53139;45.576;5.304;2022-09-12T19:31:22;3.80;3.80;3.40
66336;PMS1003;53139;45.576;5.304;2022-09-12T19:34:26;4.60;4.40;3.80
66336;PMS1003;53139;45.576;5.304;2022-09-12T19:37:29;3.40;3.40;3.00
66336;PMS1003;53139;45.576;5.304;2022-09-12T19:40:31;3.60;3.60;3.60
66336;PMS1003;53139;45.576;5.304;2022-09-12T19:43:34;3.80;3.80;3.00
66336;PMS1003;53139;45.576;5.304;2022-09-12T19:46:36;5.80;4.40;3.60
66336;PMS1003;53139;45.576;5.304;2022-09-12T19:49:39;4.00;3.60;3.00
66336;PMS1003;53139;45.576;5.304;2022-09-12T19:52:41;4.20;4.20;4.00
66336;PMS1003;53139;45.576;5.304;2022-09-12T19:55:44;3.20;2.00;1.00
66336;PMS1003;53139;45.576;5.304;2022-09-12T19:58:47;3.60;3.60;3.00
66336;PMS1003;53139;45.576;5.304;2022-09-12T20:01:51;3.20;3.00;3.00
66336;PMS1003;53139;45.576;5.304;2022-09-12T20:04:53;4.80;4.00;3.00
66336;PMS1003;53139;45.576;5.304;2022-09-12T20:07:56;6.20;3.80;3.20
66336;PMS1003;53139;45.576;5.304;2022-09-12T20:10:59;4.40;3.40;3.00
66336;PMS1003;53139;45.576;5.304;2022-09-12T20:14:01;4.80;4.00;3.40